sensor_id;sensor_type;location;lat;lon;timestamp;temperature;humidity
78704;SHT31;68034;51.966;5.676;2023-04-19T00:01:12;13.9;54.1
78704;SHT31;68034;51.966;5.676;2023-04-19T00:03:45;13.9;54.3
78704;SHT31;68034;51.966;5.676;2023-04-19T00:06:14;13.9;54.5
78704;SHT31;68034;51.966;5.676;2023-04-19T00:08:44;13.9;54.8
78704;SHT31;68034;51.966;5.676;2023-04-19T00:11:13;13.9;56.0
78704;SHT31;68034;51.966;5.676;2023-04-19T00:13:42;13.9;55.0
78704;SHT31;68034;51.966;5.676;2023-04-19T00:16:11;13.9;55.0
78704;SHT31;68034;51.966;5.676;2023-04-19T00:18:40;13.9;55.4
78704;SHT31;68034;51.966;5.676;2023-04-19T00:21:11;13.9;55.3
78704;SHT31;68034;51.966;5.676;2023-04-19T00:23:40;13.9;55.4
78704;SHT31;68034;51.966;5.676;2023-04-19T00:26:09;13.9;55.0
78704;SHT31;68034;51.966;5.676;2023-04-19T00:28:41;13.9;55.4
78704;SHT31;68034;51.966;5.676;2023-04-19T00:31:11;13.9;55.3
78704;SHT31;68034;51.966;5.676;2023-04-19T00:33:46;13.9;55.6
78704;SHT31;68034;51.966;5.676;2023-04-19T00:36:15;13.9;55.4
78704;SHT31;68034;51.966;5.676;2023-04-19T00:38:49;13.9;55.9
78704;SHT31;68034;51.966;5.676;2023-04-19T00:41:21;14.0;56.2
78704;SHT31;68034;51.966;5.676;2023-04-19T00:43:50;14.1;55.1
78704;SHT31;68034;51.966;5.676;2023-04-19T00:46:26;14.1;54.7
78704;SHT31;68034;51.966;5.676;2023-04-19T00:48:56;14.1;55.0
78704;SHT31;68034;51.966;5.676;2023-04-19T00:51:26;14.1;55.5
78704;SHT31;68034;51.966;5.676;2023-04-19T00:53:59;14.1;55.1
78704;SHT31;68034;51.966;5.676;2023-04-19T00:56:33;14.0;55.2
78704;SHT31;68034;51.966;5.676;2023-04-19T00:59:03;14.0;55.5
78704;SHT31;68034;51.966;5.676;2023-04-19T01:01:33;13.9;55.5
78704;SHT31;68034;51.966;5.676;2023-04-19T01:04:05;13.9;55.7
78704;SHT31;68034;51.966;5.676;2023-04-19T01:06:35;13.9;55.4
78704;SHT31;68034;51.966;5.676;2023-04-19T01:09:07;13.9;55.5
78704;SHT31;68034;51.966;5.676;2023-04-19T01:11:39;13.8;56.1
78704;SHT31;68034;51.966;5.676;2023-04-19T01:14:09;13.8;56.3
78704;SHT31;68034;51.966;5.676;2023-04-19T01:16:38;13.8;56.0
78704;SHT31;68034;51.966;5.676;2023-04-19T01:19:07;13.8;56.5
78704;SHT31;68034;51.966;5.676;2023-04-19T01:21:39;13.8;55.9
78704;SHT31;68034;51.966;5.676;2023-04-19T01:24:09;13.9;56.3
78704;SHT31;68034;51.966;5.676;2023-04-19T01:26:38;13.9;56.4
78704;SHT31;68034;51.966;5.676;2023-04-19T01:29:07;13.9;56.4
78704;SHT31;68034;51.966;5.676;2023-04-19T01:31:37;14.0;55.8
78704;SHT31;68034;51.966;5.676;2023-04-19T01:34:12;14.0;56.0
78704;SHT31;68034;51.966;5.676;2023-04-19T01:36:41;14.1;55.0
78704;SHT31;68034;51.966;5.676;2023-04-19T01:39:11;14.1;55.9
78704;SHT31;68034;51.966;5.676;2023-04-19T01:41:40;14.1;56.2
78704;SHT31;68034;51.966;5.676;2023-04-19T01:44:11;14.1;55.8
78704;SHT31;68034;51.966;5.676;2023-04-19T01:46:42;14.2;55.7
78704;SHT31;68034;51.966;5.676;2023-04-19T01:49:15;14.2;55.6
78704;SHT31;68034;51.966;5.676;2023-04-19T01:51:47;14.1;55.2
78704;SHT31;68034;51.966;5.676;2023-04-19T01:54:20;14.1;55.1
78704;SHT31;68034;51.966;5.676;2023-04-19T01:56:57;14.0;55.5
78704;SHT31;68034;51.966;5.676;2023-04-19T01:59:26;13.9;55.4
78704;SHT31;68034;51.966;5.676;2023-04-19T02:01:55;13.9;55.5
78704;SHT31;68034;51.966;5.676;2023-04-19T02:04:24;13.8;56.1
78704;SHT31;68034;51.966;5.676;2023-04-19T02:06:54;13.7;55.8
78704;SHT31;68034;51.966;5.676;2023-04-19T02:09:23;13.6;57.3
78704;SHT31;68034;51.966;5.676;2023-04-19T02:11:52;13.5;57.6
78704;SHT31;68034;51.966;5.676;2023-04-19T02:14:21;13.4;57.0
78704;SHT31;68034;51.966;5.676;2023-04-19T02:16:52;13.3;57.4
78704;SHT31;68034;51.966;5.676;2023-04-19T02:19:22;13.3;58.1
78704;SHT31;68034;51.966;5.676;2023-04-19T02:21:52;13.2;57.5
78704;SHT31;68034;51.966;5.676;2023-04-19T02:24:23;13.1;58.9
78704;SHT31;68034;51.966;5.676;2023-04-19T02:26:53;13.1;58.4
78704;SHT31;68034;51.966;5.676;2023-04-19T02:29:22;13.0;58.7
78704;SHT31;68034;51.966;5.676;2023-04-19T02:31:51;12.9;59.9
78704;SHT31;68034;51.966;5.676;2023-04-19T02:34:32;12.9;59.5
78704;SHT31;68034;51.966;5.676;2023-04-19T02:37:01;12.8;59.6
78704;SHT31;68034;51.966;5.676;2023-04-19T02:39:31;12.8;59.9
78704;SHT31;68034;51.966;5.676;2023-04-19T02:42:04;12.7;59.1
78704;SHT31;68034;51.966;5.676;2023-04-19T02:44:33;12.7;59.8
78704;SHT31;68034;51.966;5.676;2023-04-19T02:47:02;12.6;59.5
78704;SHT31;68034;51.966;5.676;2023-04-19T02:49:32;12.6;61.0
78704;SHT31;68034;51.966;5.676;2023-04-19T02:52:04;12.5;61.1
78704;SHT31;68034;51.966;5.676;2023-04-19T02:54:35;12.5;61.5
78704;SHT31;68034;51.966;5.676;2023-04-19T02:57:04;12.5;60.7
78704;SHT31;68034;51.966;5.676;2023-04-19T02:59:33;12.5;62.2
78704;SHT31;68034;51.966;5.676;2023-04-19T03:02:02;12.5;61.7
78704;SHT31;68034;51.966;5.676;2023-04-19T03:04:31;12.5;61.5
78704;SHT31;68034;51.966;5.676;2023-04-19T03:07:00;12.5;61.0
78704;SHT31;68034;51.966;5.676;2023-04-19T03:09:29;12.5;60.5
78704;SHT31;68034;51.966;5.676;2023-04-19T03:11:58;12.5;61.6
78704;SHT31;68034;51.966;5.676;2023-04-19T03:14:27;12.5;61.0
78704;SHT31;68034;51.966;5.676;2023-04-19T03:16:56;12.6;61.0
78704;SHT31;68034;51.966;5.676;2023-04-19T03:19:27;12.8;60.1
78704;SHT31;68034;51.966;5.676;2023-04-19T03:21:56;12.9;60.5
78704;SHT31;68034;51.966;5.676;2023-04-19T03:24:30;12.9;59.0
78704;SHT31;68034;51.966;5.676;2023-04-19T03:26:59;12.9;59.4
78704;SHT31;68034;51.966;5.676;2023-04-19T03:29:31;12.9;60.1
78704;SHT31;68034;51.966;5.676;2023-04-19T03:32:00;12.9;59.1
78704;SHT31;68034;51.966;5.676;2023-04-19T03:34:56;12.9;60.0
78704;SHT31;68034;51.966;5.676;2023-04-19T03:37:25;12.9;59.4
78704;SHT31;68034;51.966;5.676;2023-04-19T03:39:54;12.9;59.0
78704;SHT31;68034;51.966;5.676;2023-04-19T03:42:26;12.9;59.7
78704;SHT31;68034;51.966;5.676;2023-04-19T03:44:55;12.9;58.9
78704;SHT31;68034;51.966;5.676;2023-04-19T03:47:26;12.9;58.4
78704;SHT31;68034;51.966;5.676;2023-04-19T03:49:55;12.9;58.6
78704;SHT31;68034;51.966;5.676;2023-04-19T03:52:37;13.0;60.2
78704;SHT31;68034;51.966;5.676;2023-04-19T03:55:10;13.2;58.3
78704;SHT31;68034;51.966;5.676;2023-04-19T03:57:48;13.3;57.4
78704;SHT31;68034;51.966;5.676;2023-04-19T04:00:28;13.4;57.3
78704;SHT31;68034;51.966;5.676;2023-04-19T04:02:57;13.6;56.7
78704;SHT31;68034;51.966;5.676;2023-04-19T04:05:33;13.7;56.4
78704;SHT31;68034;51.966;5.676;2023-04-19T04:08:02;13.8;56.5
78704;SHT31;68034;51.966;5.676;2023-04-19T04:10:35;13.8;55.0
78704;SHT31;68034;51.966;5.676;2023-04-19T04:13:04;13.9;54.9
78704;SHT31;68034;51.966;5.676;2023-04-19T04:15:33;13.9;54.9
78704;SHT31;68034;51.966;5.676;2023-04-19T04:18:05;14.0;54.0
78704;SHT31;68034;51.966;5.676;2023-04-19T04:20:36;14.0;53.8
78704;SHT31;68034;51.966;5.676;2023-04-19T04:23:08;14.0;54.3
78704;SHT31;68034;51.966;5.676;2023-04-19T04:25:37;13.8;53.3
78704;SHT31;68034;51.966;5.676;2023-04-19T04:28:08;13.7;53.7
78704;SHT31;68034;51.966;5.676;2023-04-19T04:30:38;13.5;54.3
78704;SHT31;68034;51.966;5.676;2023-04-19T04:33:08;13.4;54.1
78704;SHT31;68034;51.966;5.676;2023-04-19T04:35:39;13.2;55.4
78704;SHT31;68034;51.966;5.676;2023-04-19T04:38:09;13.1;55.8
78704;SHT31;68034;51.966;5.676;2023-04-19T04:40:40;13.0;56.1
78704;SHT31;68034;51.966;5.676;2023-04-19T04:43:09;12.9;56.2
78704;SHT31;68034;51.966;5.676;2023-04-19T04:45:39;12.8;58.0
78704;SHT31;68034;51.966;5.676;2023-04-19T04:48:09;12.7;57.2
78704;SHT31;68034;51.966;5.676;2023-04-19T04:50:40;12.6;58.1
78704;SHT31;68034;51.966;5.676;2023-04-19T04:53:09;12.5;57.0
78704;SHT31;68034;51.966;5.676;2023-04-19T04:55:40;12.4;57.6
78704;SHT31;68034;51.966;5.676;2023-04-19T04:58:10;12.3;58.4
78704;SHT31;68034;51.966;5.676;2023-04-19T05:00:40;12.3;58.1
78704;SHT31;68034;51.966;5.676;2023-04-19T05:03:10;12.2;57.9
78704;SHT31;68034;51.966;5.676;2023-04-19T05:05:39;12.2;58.2
78704;SHT31;68034;51.966;5.676;2023-04-19T05:08:08;12.1;57.9
78704;SHT31;68034;51.966;5.676;2023-04-19T05:10:37;12.1;57.7
78704;SHT31;68034;51.966;5.676;2023-04-19T05:13:07;12.1;58.1
78704;SHT31;68034;51.966;5.676;2023-04-19T05:15:42;12.0;57.9
78704;SHT31;68034;51.966;5.676;2023-04-19T05:18:11;12.0;57.7
78704;SHT31;68034;51.966;5.676;2023-04-19T05:20:41;12.0;57.7
78704;SHT31;68034;51.966;5.676;2023-04-19T05:23:15;11.9;57.7
78704;SHT31;68034;51.966;5.676;2023-04-19T05:25:44;11.9;57.3
78704;SHT31;68034;51.966;5.676;2023-04-19T05:28:13;11.9;56.7
78704;SHT31;68034;51.966;5.676;2023-04-19T05:30:44;11.9;56.7
78704;SHT31;68034;51.966;5.676;2023-04-19T05:33:13;11.8;57.0
78704;SHT31;68034;51.966;5.676;2023-04-19T05:35:44;11.8;57.2
78704;SHT31;68034;51.966;5.676;2023-04-19T05:38:12;11.8;57.1
78704;SHT31;68034;51.966;5.676;2023-04-19T05:40:43;11.8;57.6
78704;SHT31;68034;51.966;5.676;2023-04-19T05:43:12;11.7;56.6
78704;SHT31;68034;51.966;5.676;2023-04-19T05:45:40;11.7;56.5
78704;SHT31;68034;51.966;5.676;2023-04-19T05:48:09;11.7;56.9
78704;SHT31;68034;51.966;5.676;2023-04-19T05:50:45;11.7;58.7
78704;SHT31;68034;51.966;5.676;2023-04-19T05:53:14;11.7;57.1
78704;SHT31;68034;51.966;5.676;2023-04-19T05:55:43;11.8;56.7
78704;SHT31;68034;51.966;5.676;2023-04-19T05:58:13;11.8;56.7
78704;SHT31;68034;51.966;5.676;2023-04-19T06:00:43;11.8;55.3
78704;SHT31;68034;51.966;5.676;2023-04-19T06:03:14;11.8;56.4
78704;SHT31;68034;51.966;5.676;2023-04-19T06:05:43;11.8;54.8
78704;SHT31;68034;51.966;5.676;2023-04-19T06:08:13;11.8;54.7
78704;SHT31;68034;51.966;5.676;2023-04-19T06:10:44;11.8;53.7
78704;SHT31;68034;51.966;5.676;2023-04-19T06:13:15;11.8;53.1
78704;SHT31;68034;51.966;5.676;2023-04-19T06:15:45;11.9;53.1
78704;SHT31;68034;51.966;5.676;2023-04-19T06:18:14;11.9;52.3
78704;SHT31;68034;51.966;5.676;2023-04-19T06:20:49;11.9;52.8
78704;SHT31;68034;51.966;5.676;2023-04-19T06:23:20;11.9;52.4
78704;SHT31;68034;51.966;5.676;2023-04-19T06:25:53;11.9;52.2
78704;SHT31;68034;51.966;5.676;2023-04-19T06:28:21;11.9;51.0
78704;SHT31;68034;51.966;5.676;2023-04-19T06:30:50;11.9;50.7
78704;SHT31;68034;51.966;5.676;2023-04-19T06:33:19;12.0;50.2
78704;SHT31;68034;51.966;5.676;2023-04-19T06:35:48;12.0;50.6
78704;SHT31;68034;51.966;5.676;2023-04-19T06:38:17;12.0;50.6
78704;SHT31;68034;51.966;5.676;2023-04-19T06:40:47;12.1;51.7
78704;SHT31;68034;51.966;5.676;2023-04-19T06:43:16;12.1;50.3
78704;SHT31;68034;51.966;5.676;2023-04-19T06:45:45;12.2;49.4
78704;SHT31;68034;51.966;5.676;2023-04-19T06:48:14;12.2;48.8
78704;SHT31;68034;51.966;5.676;2023-04-19T06:50:43;12.2;49.5
78704;SHT31;68034;51.966;5.676;2023-04-19T06:53:12;12.3;47.7
78704;SHT31;68034;51.966;5.676;2023-04-19T06:55:42;12.3;47.9
78704;SHT31;68034;51.966;5.676;2023-04-19T06:58:11;12.4;47.3
78704;SHT31;68034;51.966;5.676;2023-04-19T07:00:40;12.4;47.0
78704;SHT31;68034;51.966;5.676;2023-04-19T07:03:09;12.5;46.3
78704;SHT31;68034;51.966;5.676;2023-04-19T07:05:44;12.5;46.3
78704;SHT31;68034;51.966;5.676;2023-04-19T07:08:13;12.6;44.9
78704;SHT31;68034;51.966;5.676;2023-04-19T07:10:42;12.6;44.2
78704;SHT31;68034;51.966;5.676;2023-04-19T07:13:12;12.7;43.7
78704;SHT31;68034;51.966;5.676;2023-04-19T07:15:41;12.7;44.5
78704;SHT31;68034;51.966;5.676;2023-04-19T07:18:10;12.8;42.9
78704;SHT31;68034;51.966;5.676;2023-04-19T07:20:41;12.9;43.5
78704;SHT31;68034;51.966;5.676;2023-04-19T07:23:16;12.9;43.1
78704;SHT31;68034;51.966;5.676;2023-04-19T07:25:45;13.0;42.7
78704;SHT31;68034;51.966;5.676;2023-04-19T07:28:14;13.0;43.1
78704;SHT31;68034;51.966;5.676;2023-04-19T07:30:44;13.1;44.1
78704;SHT31;68034;51.966;5.676;2023-04-19T07:33:13;13.1;43.2
78704;SHT31;68034;51.966;5.676;2023-04-19T07:35:45;13.2;42.7
78704;SHT31;68034;51.966;5.676;2023-04-19T07:38:19;13.3;42.7
78704;SHT31;68034;51.966;5.676;2023-04-19T07:40:48;13.3;42.7
78704;SHT31;68034;51.966;5.676;2023-04-19T07:43:18;13.4;42.0
78704;SHT31;68034;51.966;5.676;2023-04-19T07:45:48;13.5;41.0
78704;SHT31;68034;51.966;5.676;2023-04-19T07:48:18;13.5;39.5
78704;SHT31;68034;51.966;5.676;2023-04-19T07:50:50;13.6;40.7
78704;SHT31;68034;51.966;5.676;2023-04-19T07:53:26;13.7;40.4
78704;SHT31;68034;51.966;5.676;2023-04-19T07:55:55;13.7;40.8
78704;SHT31;68034;51.966;5.676;2023-04-19T07:58:25;13.8;41.1
78704;SHT31;68034;51.966;5.676;2023-04-19T08:00:55;13.8;40.0
78704;SHT31;68034;51.966;5.676;2023-04-19T08:03:24;13.9;40.3
78704;SHT31;68034;51.966;5.676;2023-04-19T08:05:53;14.0;40.6
78704;SHT31;68034;51.966;5.676;2023-04-19T08:08:22;14.0;38.6
78704;SHT31;68034;51.966;5.676;2023-04-19T08:10:52;14.1;39.3
78704;SHT31;68034;51.966;5.676;2023-04-19T08:13:22;14.2;38.6
78704;SHT31;68034;51.966;5.676;2023-04-19T08:15:53;14.2;37.7
78704;SHT31;68034;51.966;5.676;2023-04-19T08:18:23;14.3;39.2
78704;SHT31;68034;51.966;5.676;2023-04-19T08:20:55;14.3;38.2
78704;SHT31;68034;51.966;5.676;2023-04-19T08:23:25;14.4;39.9
78704;SHT31;68034;51.966;5.676;2023-04-19T08:25:54;14.4;37.7
78704;SHT31;68034;51.966;5.676;2023-04-19T08:28:23;14.6;36.9
78704;SHT31;68034;51.966;5.676;2023-04-19T08:30:53;14.8;35.3
78704;SHT31;68034;51.966;5.676;2023-04-19T08:33:33;14.9;35.6
78704;SHT31;68034;51.966;5.676;2023-04-19T08:36:08;14.9;35.8
78704;SHT31;68034;51.966;5.676;2023-04-19T08:38:38;15.0;35.5
78704;SHT31;68034;51.966;5.676;2023-04-19T08:41:10;15.0;35.1
78704;SHT31;68034;51.966;5.676;2023-04-19T08:43:42;15.1;34.7
78704;SHT31;68034;51.966;5.676;2023-04-19T08:46:15;15.1;35.5
78704;SHT31;68034;51.966;5.676;2023-04-19T08:48:46;15.1;35.4
78704;SHT31;68034;51.966;5.676;2023-04-19T08:51:16;15.2;36.0
78704;SHT31;68034;51.966;5.676;2023-04-19T08:53:55;15.2;34.9
78704;SHT31;68034;51.966;5.676;2023-04-19T08:56:27;15.3;34.7
78704;SHT31;68034;51.966;5.676;2023-04-19T08:58:57;15.4;34.8
78704;SHT31;68034;51.966;5.676;2023-04-19T09:01:38;15.5;36.8
78704;SHT31;68034;51.966;5.676;2023-04-19T09:04:11;15.5;35.4
78704;SHT31;68034;51.966;5.676;2023-04-19T09:06:44;15.6;34.2
78704;SHT31;68034;51.966;5.676;2023-04-19T09:09:18;15.6;31.9
78704;SHT31;68034;51.966;5.676;2023-04-19T09:11:49;15.6;33.1
78704;SHT31;68034;51.966;5.676;2023-04-19T09:14:24;15.7;32.9
78704;SHT31;68034;51.966;5.676;2023-04-19T09:17:13;15.7;32.1
78704;SHT31;68034;51.966;5.676;2023-04-19T09:19:51;15.7;34.3
78704;SHT31;68034;51.966;5.676;2023-04-19T09:22:24;15.8;32.2
78704;SHT31;68034;51.966;5.676;2023-04-19T09:24:54;15.8;32.3
78704;SHT31;68034;51.966;5.676;2023-04-19T09:27:28;15.8;32.1
78704;SHT31;68034;51.966;5.676;2023-04-19T09:30:09;15.9;31.5
78704;SHT31;68034;51.966;5.676;2023-04-19T09:32:50;15.9;30.5
78704;SHT31;68034;51.966;5.676;2023-04-19T09:35:42;15.9;32.1
78704;SHT31;68034;51.966;5.676;2023-04-19T09:38:16;16.0;33.7
78704;SHT31;68034;51.966;5.676;2023-04-19T09:40:48;16.0;32.8
78704;SHT31;68034;51.966;5.676;2023-04-19T09:43:25;16.1;33.1
78704;SHT31;68034;51.966;5.676;2023-04-19T09:45:55;16.1;32.3
78704;SHT31;68034;51.966;5.676;2023-04-19T09:48:25;16.2;32.2
78704;SHT31;68034;51.966;5.676;2023-04-19T09:50:56;16.2;31.5
78704;SHT31;68034;51.966;5.676;2023-04-19T09:53:27;16.3;31.4
78704;SHT31;68034;51.966;5.676;2023-04-19T09:55:56;16.3;32.0
78704;SHT31;68034;51.966;5.676;2023-04-19T09:58:27;16.4;31.5
78704;SHT31;68034;51.966;5.676;2023-04-19T10:00:58;16.4;32.4
78704;SHT31;68034;51.966;5.676;2023-04-19T10:03:30;16.4;33.0
78704;SHT31;68034;51.966;5.676;2023-04-19T10:06:04;16.5;31.8
78704;SHT31;68034;51.966;5.676;2023-04-19T10:08:45;16.5;30.7
78704;SHT31;68034;51.966;5.676;2023-04-19T10:11:16;16.6;31.5
78704;SHT31;68034;51.966;5.676;2023-04-19T10:13:48;16.6;32.8
78704;SHT31;68034;51.966;5.676;2023-04-19T10:16:18;16.6;32.8
78704;SHT31;68034;51.966;5.676;2023-04-19T10:18:48;16.6;32.7
78704;SHT31;68034;51.966;5.676;2023-04-19T10:21:19;16.7;30.9
78704;SHT31;68034;51.966;5.676;2023-04-19T10:23:49;16.7;29.9
78704;SHT31;68034;51.966;5.676;2023-04-19T10:26:18;16.8;30.2
78704;SHT31;68034;51.966;5.676;2023-04-19T10:28:49;16.8;30.8
78704;SHT31;68034;51.966;5.676;2023-04-19T10:31:20;16.8;30.4
78704;SHT31;68034;51.966;5.676;2023-04-19T10:33:59;16.8;30.6
78704;SHT31;68034;51.966;5.676;2023-04-19T10:36:28;16.8;30.6
78704;SHT31;68034;51.966;5.676;2023-04-19T10:38:57;16.9;31.1
78704;SHT31;68034;51.966;5.676;2023-04-19T10:41:55;16.9;30.7
78704;SHT31;68034;51.966;5.676;2023-04-19T10:44:25;16.9;29.9
78704;SHT31;68034;51.966;5.676;2023-04-19T10:46:54;17.0;29.6
78704;SHT31;68034;51.966;5.676;2023-04-19T10:49:27;17.0;30.1
78704;SHT31;68034;51.966;5.676;2023-04-19T10:51:57;17.0;29.2
78704;SHT31;68034;51.966;5.676;2023-04-19T10:54:32;17.1;28.9
78704;SHT31;68034;51.966;5.676;2023-04-19T10:57:04;17.1;29.2
78704;SHT31;68034;51.966;5.676;2023-04-19T10:59:34;17.2;29.4
78704;SHT31;68034;51.966;5.676;2023-04-19T11:02:31;17.3;29.1
78704;SHT31;68034;51.966;5.676;2023-04-19T11:05:04;17.4;29.5
78704;SHT31;68034;51.966;5.676;2023-04-19T11:07:40;17.5;29.5
78704;SHT31;68034;51.966;5.676;2023-04-19T11:10:10;17.6;29.9
78704;SHT31;68034;51.966;5.676;2023-04-19T11:12:43;17.6;29.6
78704;SHT31;68034;51.966;5.676;2023-04-19T11:15:21;17.6;28.6
78704;SHT31;68034;51.966;5.676;2023-04-19T11:17:51;17.7;28.8
78704;SHT31;68034;51.966;5.676;2023-04-19T11:20:22;17.7;29.6
78704;SHT31;68034;51.966;5.676;2023-04-19T11:22:52;17.7;27.9
78704;SHT31;68034;51.966;5.676;2023-04-19T11:25:26;17.7;27.8
78704;SHT31;68034;51.966;5.676;2023-04-19T11:27:59;17.7;29.6
78704;SHT31;68034;51.966;5.676;2023-04-19T11:30:30;17.7;28.1
78704;SHT31;68034;51.966;5.676;2023-04-19T11:33:00;17.7;28.3
78704;SHT31;68034;51.966;5.676;2023-04-19T11:35:29;17.7;28.5
78704;SHT31;68034;51.966;5.676;2023-04-19T11:37:58;17.7;29.9
78704;SHT31;68034;51.966;5.676;2023-04-19T11:40:28;17.7;27.5
78704;SHT31;68034;51.966;5.676;2023-04-19T11:42:59;17.8;27.4
78704;SHT31;68034;51.966;5.676;2023-04-19T11:45:30;17.9;29.5
78704;SHT31;68034;51.966;5.676;2023-04-19T11:48:04;18.0;26.7
78704;SHT31;68034;51.966;5.676;2023-04-19T11:50:38;18.1;27.0
78704;SHT31;68034;51.966;5.676;2023-04-19T11:53:13;18.3;27.4
78704;SHT31;68034;51.966;5.676;2023-04-19T11:55:43;18.4;27.2
78704;SHT31;68034;51.966;5.676;2023-04-19T11:58:27;18.5;25.0
78704;SHT31;68034;51.966;5.676;2023-04-19T12:01:02;18.7;26.2
78704;SHT31;68034;51.966;5.676;2023-04-19T12:03:32;18.8;26.8
78704;SHT31;68034;51.966;5.676;2023-04-19T12:06:02;18.9;26.0
78704;SHT31;68034;51.966;5.676;2023-04-19T12:08:35;19.1;25.6
78704;SHT31;68034;51.966;5.676;2023-04-19T12:11:06;19.2;26.7
78704;SHT31;68034;51.966;5.676;2023-04-19T12:13:36;19.4;26.1
78704;SHT31;68034;51.966;5.676;2023-04-19T12:16:07;19.5;24.4
78704;SHT31;68034;51.966;5.676;2023-04-19T12:18:47;19.7;24.4
78704;SHT31;68034;51.966;5.676;2023-04-19T12:21:28;19.8;24.5
78704;SHT31;68034;51.966;5.676;2023-04-19T12:24:00;19.9;23.6
78704;SHT31;68034;51.966;5.676;2023-04-19T12:26:30;20.0;23.4
78704;SHT31;68034;51.966;5.676;2023-04-19T12:29:01;20.1;23.9
78704;SHT31;68034;51.966;5.676;2023-04-19T12:31:30;20.3;23.3
78704;SHT31;68034;51.966;5.676;2023-04-19T12:34:00;20.3;22.9
78704;SHT31;68034;51.966;5.676;2023-04-19T12:36:29;20.4;23.2
78704;SHT31;68034;51.966;5.676;2023-04-19T12:38:58;20.5;24.0
78704;SHT31;68034;51.966;5.676;2023-04-19T12:41:27;20.6;23.5
78704;SHT31;68034;51.966;5.676;2023-04-19T12:43:56;20.8;23.5
78704;SHT31;68034;51.966;5.676;2023-04-19T12:46:25;20.9;22.2
78704;SHT31;68034;51.966;5.676;2023-04-19T12:48:54;21.0;23.1
78704;SHT31;68034;51.966;5.676;2023-04-19T12:51:23;21.1;23.0
78704;SHT31;68034;51.966;5.676;2023-04-19T12:53:53;21.2;22.2
78704;SHT31;68034;51.966;5.676;2023-04-19T12:56:23;21.3;24.9
78704;SHT31;68034;51.966;5.676;2023-04-19T12:58:52;21.4;22.1
78704;SHT31;68034;51.966;5.676;2023-04-19T13:01:21;21.5;23.6
78704;SHT31;68034;51.966;5.676;2023-04-19T13:03:50;21.6;22.8
78704;SHT31;68034;51.966;5.676;2023-04-19T13:06:19;21.7;22.3
78704;SHT31;68034;51.966;5.676;2023-04-19T13:08:48;21.8;22.5
78704;SHT31;68034;51.966;5.676;2023-04-19T13:11:17;21.9;22.1
78704;SHT31;68034;51.966;5.676;2023-04-19T13:13:48;21.9;23.5
78704;SHT31;68034;51.966;5.676;2023-04-19T13:16:19;22.0;22.1
78704;SHT31;68034;51.966;5.676;2023-04-19T13:18:48;22.1;22.0
78704;SHT31;68034;51.966;5.676;2023-04-19T13:21:20;22.2;23.1
78704;SHT31;68034;51.966;5.676;2023-04-19T13:23:49;22.2;21.6
78704;SHT31;68034;51.966;5.676;2023-04-19T13:26:18;22.3;22.5
78704;SHT31;68034;51.966;5.676;2023-04-19T13:28:48;22.4;21.9
78704;SHT31;68034;51.966;5.676;2023-04-19T13:31:17;22.5;21.3
78704;SHT31;68034;51.966;5.676;2023-04-19T13:33:46;22.6;20.7
78704;SHT31;68034;51.966;5.676;2023-04-19T13:36:15;22.7;20.2
78704;SHT31;68034;51.966;5.676;2023-04-19T13:38:44;22.7;21.2
78704;SHT31;68034;51.966;5.676;2023-04-19T13:41:14;22.8;20.0
78704;SHT31;68034;51.966;5.676;2023-04-19T13:43:47;23.0;20.4
78704;SHT31;68034;51.966;5.676;2023-04-19T13:46:23;23.2;21.7
78704;SHT31;68034;51.966;5.676;2023-04-19T13:48:52;23.3;20.4
78704;SHT31;68034;51.966;5.676;2023-04-19T13:51:21;23.4;19.6
78704;SHT31;68034;51.966;5.676;2023-04-19T13:53:50;23.5;20.7
78704;SHT31;68034;51.966;5.676;2023-04-19T13:56:19;23.5;19.9
78704;SHT31;68034;51.966;5.676;2023-04-19T13:58:50;23.6;21.0
78704;SHT31;68034;51.966;5.676;2023-04-19T14:01:21;23.7;20.9
78704;SHT31;68034;51.966;5.676;2023-04-19T14:03:51;23.9;19.1
78704;SHT31;68034;51.966;5.676;2023-04-19T14:06:20;24.0;19.4
78704;SHT31;68034;51.966;5.676;2023-04-19T14:08:49;24.1;19.8
78704;SHT31;68034;51.966;5.676;2023-04-19T14:11:18;24.2;20.4
78704;SHT31;68034;51.966;5.676;2023-04-19T14:13:49;24.4;18.7
78704;SHT31;68034;51.966;5.676;2023-04-19T14:16:20;24.6;18.4
78704;SHT31;68034;51.966;5.676;2023-04-19T14:18:53;24.7;20.0
78704;SHT31;68034;51.966;5.676;2023-04-19T14:21:22;24.9;18.8
78704;SHT31;68034;51.966;5.676;2023-04-19T14:24:06;25.2;19.1
78704;SHT31;68034;51.966;5.676;2023-04-19T14:26:35;25.4;18.0
78704;SHT31;68034;51.966;5.676;2023-04-19T14:29:06;25.6;18.1
78704;SHT31;68034;51.966;5.676;2023-04-19T14:31:35;25.7;18.3
78704;SHT31;68034;51.966;5.676;2023-04-19T14:34:04;25.9;18.0
78704;SHT31;68034;51.966;5.676;2023-04-19T14:36:33;26.0;17.6
78704;SHT31;68034;51.966;5.676;2023-04-19T14:39:02;26.1;18.6
78704;SHT31;68034;51.966;5.676;2023-04-19T14:41:33;26.2;17.7
78704;SHT31;68034;51.966;5.676;2023-04-19T14:44:03;26.3;19.1
78704;SHT31;68034;51.966;5.676;2023-04-19T14:46:32;26.3;18.3
78704;SHT31;68034;51.966;5.676;2023-04-19T14:49:02;26.4;19.0
78704;SHT31;68034;51.966;5.676;2023-04-19T14:51:32;26.4;19.3
78704;SHT31;68034;51.966;5.676;2023-04-19T14:54:03;26.4;19.5
78704;SHT31;68034;51.966;5.676;2023-04-19T14:56:35;26.4;19.1
78704;SHT31;68034;51.966;5.676;2023-04-19T14:59:13;26.4;18.6
78704;SHT31;68034;51.966;5.676;2023-04-19T15:01:42;26.3;18.9
78704;SHT31;68034;51.966;5.676;2023-04-19T15:04:11;26.2;19.0
78704;SHT31;68034;51.966;5.676;2023-04-19T15:06:40;26.0;19.7
78704;SHT31;68034;51.966;5.676;2023-04-19T15:09:10;25.9;20.6
78704;SHT31;68034;51.966;5.676;2023-04-19T15:11:40;25.8;20.2
78704;SHT31;68034;51.966;5.676;2023-04-19T15:14:13;25.7;20.0
78704;SHT31;68034;51.966;5.676;2023-04-19T15:16:43;25.6;19.3
78704;SHT31;68034;51.966;5.676;2023-04-19T15:19:12;25.5;19.2
78704;SHT31;68034;51.966;5.676;2023-04-19T15:21:42;25.3;19.2
78704;SHT31;68034;51.966;5.676;2023-04-19T15:24:11;25.0;19.8
78704;SHT31;68034;51.966;5.676;2023-04-19T15:26:41;24.7;19.3
78704;SHT31;68034;51.966;5.676;2023-04-19T15:29:11;24.5;19.6
78704;SHT31;68034;51.966;5.676;2023-04-19T15:31:40;24.4;20.5
78704;SHT31;68034;51.966;5.676;2023-04-19T15:34:09;24.4;20.1
78704;SHT31;68034;51.966;5.676;2023-04-19T15:36:38;24.3;20.4
78704;SHT31;68034;51.966;5.676;2023-04-19T15:39:08;24.3;20.3
78704;SHT31;68034;51.966;5.676;2023-04-19T15:41:38;24.3;19.8
78704;SHT31;68034;51.966;5.676;2023-04-19T15:44:23;24.2;19.9
78704;SHT31;68034;51.966;5.676;2023-04-19T15:46:52;24.1;20.4
78704;SHT31;68034;51.966;5.676;2023-04-19T15:49:21;23.9;20.4
78704;SHT31;68034;51.966;5.676;2023-04-19T15:51:58;23.8;21.1
78704;SHT31;68034;51.966;5.676;2023-04-19T15:54:33;23.7;21.8
78704;SHT31;68034;51.966;5.676;2023-04-19T15:57:03;23.7;22.7
78704;SHT31;68034;51.966;5.676;2023-04-19T15:59:32;23.7;22.3
78704;SHT31;68034;51.966;5.676;2023-04-19T16:02:04;23.7;22.8
78704;SHT31;68034;51.966;5.676;2023-04-19T16:04:33;23.7;21.4
78704;SHT31;68034;51.966;5.676;2023-04-19T16:07:04;23.7;22.2
78704;SHT31;68034;51.966;5.676;2023-04-19T16:09:33;23.8;23.6
78704;SHT31;68034;51.966;5.676;2023-04-19T16:12:03;23.9;22.6
78704;SHT31;68034;51.966;5.676;2023-04-19T16:14:33;24.1;22.6
78704;SHT31;68034;51.966;5.676;2023-04-19T16:17:03;24.2;21.5
78704;SHT31;68034;51.966;5.676;2023-04-19T16:19:32;24.2;23.1
78704;SHT31;68034;51.966;5.676;2023-04-19T16:22:04;24.3;22.1
78704;SHT31;68034;51.966;5.676;2023-04-19T16:24:38;24.4;21.9
78704;SHT31;68034;51.966;5.676;2023-04-19T16:27:12;24.4;22.0